Portal, North Dakota
Current Conditions -  °F | °C
As of 9:00 PM on Monday 20 Oct 2014 (Local Time) from CYEN Reporting Station
Clear Clear  
Wind Chill: 54°   Ceiling: Unl
Heat Index: 54°   Visibility: 15mi
Dew Point: 43°   Wind: 12mph
Humidity: 67%   Direction: 130°SE
Pressure: 29.81"   Gusts: NA
Location:  49°N, 102.55°W
Report Text: CYEN 210200Z 13010KT 15SM SKC 12/06 A2981 RMK SLP109
Loading
Personal Weather Stations






























Interactive Weather Map
Tropical Storm Tracking
New forecast layout! Learn more

10-Day Weather Forecast

Advertisements
Track Severe Weather on mobile